Rebecca, Georgia
Current Conditions -  °F | °C
As of 12:35 AM on Friday 28 Nov 2014 (Local Time) from KFZG Reporting Station
Clear Clear  
Wind Chill: 35°   Ceiling: Unl
Heat Index: 40°   Visibility: 10mi
Dew Point: 27°   Wind: 7mph
Humidity: 60%   Direction: 330°NNW
Pressure: 30.39"   Gusts: NA
Location:  31.81°N, 83.49°W
Report Text: KFZG 280535Z AUTO 33006KT 10SM CLR 05/M03 A3039 RMK AO2 T00451027
Loading
Personal Weather Stations






























Interactive Weather Map New forecast layout! Learn more

10-Day Weather Forecast

Advertisements
Track Severe Weather on mobile